Time;durP1;ratioP1;P1;durP2;ratioP2;P2;SDS_P1;SDS_P2;PMS_P1;PMS_P2;Temp;Humidity;BMP_temperature;BMP_pressure;BME280_temperature;BME280_humidity;BME280_pressure;Samples;Min_cycle;Max_cycle;Signal;HPM_P1;HPM_P2
2021/12/14 00:01:30;;;;;;;0.30;0.30;;;3.80;99.90;;;;;;5054501;28;20258;-69
2021/12/14 00:04:01;;;;;;;0.30;0.30;;;3.80;99.90;;;;;;5054588;28;20183;-69
2021/12/14 00:06:26;;;;;;;0.30;0.30;;;3.80;99.90;;;;;;5054368;28;20218;-69
2021/12/14 00:08:58;;;;;;;0.30;0.30;;;3.80;99.90;;;;;;5054827;28;20164;-70
2021/12/14 00:11:54;;;;;;;0.30;0.30;;;3.80;99.90;;;;;;5054176;28;20159;-70
2021/12/14 00:15:03;;;;;;;0.30;0.30;;;3.80;99.90;;;;;;5052836;28;20533;-69
2021/12/14 00:17:14;;;;;;;0.40;0.40;;;3.80;99.90;;;;;;5052767;28;20561;-70
2021/12/14 00:19:40;;;;;;;0.30;0.30;;;3.80;99.90;;;;;;5053613;28;20250;-70
2021/12/14 00:22:19;;;;;;;0.30;0.30;;;3.80;99.90;;;;;;5054015;28;20269;-71
2021/12/14 00:24:45;;;;;;;0.30;0.30;;;3.80;99.90;;;;;;5054197;28;20168;-69
2021/12/14 00:27:13;;;;;;;0.30;0.30;;;3.70;99.90;;;;;;5053956;28;20200;-69
2021/12/14 00:29:56;;;;;;;0.30;0.30;;;3.60;99.90;;;;;;5053795;28;20536;-69
2021/12/14 00:32:27;;;;;;;0.30;0.30;;;3.60;99.90;;;;;;5054058;28;20655;-70
2021/12/14 00:34:58;;;;;;;0.30;0.30;;;3.70;99.90;;;;;;5054058;28;20200;-70
2021/12/14 00:37:31;;;;;;;0.30;0.30;;;3.70;99.90;;;;;;5053894;28;20157;-70
2021/12/14 00:39:59;;;;;;;0.30;0.30;;;3.70;99.90;;;;;;5053869;28;20169;-70
2021/12/14 00:42:25;;;;;;;0.30;0.30;;;3.80;99.90;;;;;;5053619;28;20204;-70
2021/12/14 00:44:51;;;;;;;0.30;0.30;;;3.80;99.90;;;;;;5053892;28;20164;-69
2021/12/14 00:47:17;;;;;;;0.30;0.30;;;3.70;99.90;;;;;;5053748;28;20422;-70
2021/12/14 00:49:42;;;;;;;0.30;0.30;;;3.60;99.90;;;;;;5053479;28;20167;-71
2021/12/14 00:52:09;;;;;;;0.30;0.30;;;3.60;99.90;;;;;;5053814;28;20178;-69
2021/12/14 00:54:35;;;;;;;0.30;0.30;;;3.60;99.90;;;;;;5053639;28;20712;-70
2021/12/14 00:57:02;;;;;;;0.30;0.30;;;3.60;99.90;;;;;;5053558;28;20198;-69
2021/12/14 00:59:28;;;;;;;0.40;0.40;;;3.60;99.90;;;;;;5053435;28;20177;-69
2021/12/14 01:01:58;;;;;;;0.40;0.40;;;3.60;99.90;;;;;;5053592;28;20204;-70
2021/12/14 01:04:33;;;;;;;0.30;0.30;;;3.70;99.90;;;;;;5053797;28;20173;-70
2021/12/14 01:06:59;;;;;;;0.40;0.40;;;3.80;99.90;;;;;;5053766;28;20693;-70
2021/12/14 01:09:32;;;;;;;0.30;0.30;;;3.90;99.90;;;;;;5053268;28;20249;-70
2021/12/14 01:12:07;;;;;;;0.30;0.30;;;3.90;99.90;;;;;;5053605;28;20181;-68
2021/12/14 01:14:45;;;;;;;0.30;0.30;;;3.70;99.90;;;;;;5053544;28;20174;-70
2021/12/14 01:17:39;;;;;;;0.30;0.30;;;3.60;99.90;;;;;;5053268;28;20246;-70
2021/12/14 01:20:07;;;;;;;0.30;0.30;;;3.60;99.90;;;;;;5053448;28;20532;-69
2021/12/14 01:22:41;;;;;;;0.40;0.40;;;3.70;99.90;;;;;;5053482;28;20169;-70
2021/12/14 01:25:17;;;;;;;0.32;0.32;;;3.70;99.90;;;;;;5054761;28;20203;-71
2021/12/14 01:28:00;;;;;;;0.35;0.35;;;3.70;99.90;;;;;;5057373;28;20172;-70
2021/12/14 01:30:32;;;;;;;0.40;0.40;;;3.70;99.90;;;;;;5057396;28;20166;-70
2021/12/14 01:33:04;;;;;;;0.30;0.30;;;3.60;99.90;;;;;;5057429;28;20292;-70
2021/12/14 01:35:34;;;;;;;0.30;0.30;;;3.50;99.90;;;;;;5057390;28;20197;-69
2021/12/14 01:38:15;;;;;;;0.30;0.30;;;3.60;99.90;;;;;;5057204;28;20710;-70
2021/12/14 01:41:03;;;;;;;0.30;0.30;;;3.60;99.90;;;;;;5057091;28;20168;-70
2021/12/14 01:43:36;;;;;;;0.30;0.30;;;3.60;99.90;;;;;;5057155;28;20529;-69
2021/12/14 01:46:10;;;;;;;0.35;0.35;;;3.60;99.90;;;;;;5056964;28;20213;-70
2021/12/14 01:48:37;;;;;;;0.30;0.30;;;3.70;99.90;;;;;;5057296;28;20676;-69
2021/12/14 01:51:06;;;;;;;0.30;0.30;;;3.80;99.90;;;;;;5056837;28;20175;-70
2021/12/14 01:53:32;;;;;;;0.32;0.32;;;3.70;99.90;;;;;;5057363;28;20171;-70
2021/12/14 01:56:02;;;;;;;0.30;0.30;;;3.70;99.90;;;;;;5056796;28;20204;-71
2021/12/14 01:58:54;;;;;;;0.30;0.30;;;3.60;99.90;;;;;;5056915;28;20176;-69
2021/12/14 02:01:28;;;;;;;0.30;0.30;;;3.60;99.90;;;;;;5056691;28;20178;-70
2021/12/14 02:04:00;;;;;;;0.30;0.30;;;3.70;99.90;;;;;;5057006;28;20184;-69
2021/12/14 02:06:31;;;;;;;0.40;0.40;;;3.70;99.90;;;;;;5056613;28;20215;-68
2021/12/14 02:09:03;;;;;;;0.30;0.30;;;3.70;99.90;;;;;;5056922;28;20177;-70
2021/12/14 02:11:40;;;;;;;0.30;0.30;;;3.70;99.90;;;;;;5056670;28;20666;-69
2021/12/14 02:14:06;;;;;;;0.30;0.30;;;3.80;99.90;;;;;;5056997;28;20180;-70
2021/12/14 02:16:33;;;;;;;0.30;0.30;;;3.80;99.90;;;;;;5056707;28;20310;-70
2021/12/14 02:19:02;;;;;;;0.30;0.30;;;3.80;99.90;;;;;;5056618;28;20177;-70
2021/12/14 02:21:29;;;;;;;0.30;0.30;;;3.80;99.90;;;;;;5056426;28;20184;-69
2021/12/14 02:23:58;;;;;;;0.30;0.30;;;3.80;99.90;;;;;;5056331;28;20188;-69
2021/12/14 02:26:29;;;;;;;0.30;0.30;;;3.80;99.90;;;;;;5056181;28;20205;-69
2021/12/14 02:28:57;;;;;;;0.30;0.30;;;3.80;99.90;;;;;;5056474;28;20566;-69
2021/12/14 02:31:24;;;;;;;0.30;0.30;;;3.80;99.90;;;;;;5056182;28;20172;-70
2021/12/14 02:33:53;;;;;;;0.30;0.30;;;3.80;99.90;;;;;;5056401;28;20180;-70
2021/12/14 02:36:29;;;;;;;0.30;0.30;;;3.80;99.90;;;;;;5056007;28;20254;-70
2021/12/14 02:39:09;;;;;;;0.30;0.30;;;3.90;99.90;;;;;;5056586;28;20171;-70
2021/12/14 02:41:47;;;;;;;0.30;0.30;;;3.80;99.90;;;;;;5056321;28;20164;-70
2021/12/14 02:44:14;;;;;;;0.30;0.30;;;3.80;99.90;;;;;;5056208;28;20206;-70
2021/12/14 02:46:45;;;;;;;0.30;0.30;;;3.70;99.90;;;;;;5056025;28;20255;-69
2021/12/14 02:49:15;;;;;;;0.30;0.30;;;3.60;99.90;;;;;;5055790;28;20200;-70
2021/12/14 02:51:50;;;;;;;0.30;0.30;;;3.60;99.90;;;;;;5056297;28;20185;-70
2021/12/14 02:54:20;;;;;;;0.30;0.30;;;3.70;99.90;;;;;;5056227;28;20271;-70
2021/12/14 02:56:49;;;;;;;0.30;0.30;;;3.80;99.90;;;;;;5055724;28;20290;-71
2021/12/14 02:59:28;;;;;;;0.30;0.30;;;3.90;99.90;;;;;;5055466;28;20176;-70
2021/12/14 03:01:56;;;;;;;0.30;0.30;;;3.90;99.90;;;;;;5055949;28;20207;-70
2021/12/14 03:04:21;;;;;;;0.30;0.30;;;3.80;99.90;;;;;;5055679;28;20226;-70
2021/12/14 03:06:54;;;;;;;0.30;0.30;;;3.90;99.90;;;;;;5055562;28;20689;-70
2021/12/14 03:09:37;;;;;;;0.30;0.30;;;3.90;99.90;;;;;;5055576;28;20165;-70
2021/12/14 03:12:16;;;;;;;0.32;0.32;;;3.80;99.90;;;;;;5055568;28;20173;-70
2021/12/14 03:15:14;;;;;;;0.30;0.30;;;3.80;99.90;;;;;;5055705;28;20253;-70
2021/12/14 03:17:43;;;;;;;0.30;0.30;;;3.90;99.90;;;;;;5055415;28;20184;-70
2021/12/14 03:20:40;;;;;;;0.30;0.30;;;3.90;99.90;;;;;;5055240;28;20597;-70
2021/12/14 03:23:09;;;;;;;0.30;0.30;;;3.90;99.90;;;;;;5055558;28;20179;-69
2021/12/14 03:25:38;;;;;;;0.40;0.40;;;3.80;99.90;;;;;;5055166;28;20569;-69
2021/12/14 03:28:05;;;;;;;0.30;0.30;;;3.70;99.90;;;;;;5055219;28;20541;-69
2021/12/14 03:30:36;;;;;;;0.30;0.30;;;3.70;99.90;;;;;;5055028;28;20254;-70
2021/12/14 03:33:12;;;;;;;0.30;0.30;;;3.70;99.90;;;;;;5055394;28;20177;-71
2021/12/14 03:35:49;;;;;;;0.30;0.30;;;3.70;99.90;;;;;;5055418;28;20681;-70
2021/12/14 03:38:23;;;;;;;0.30;0.30;;;3.70;99.90;;;;;;5055112;28;20176;-70
2021/12/14 03:40:59;;;;;;;0.30;0.30;;;3.70;99.90;;;;;;5054731;28;20168;-71
2021/12/14 03:43:26;;;;;;;0.30;0.30;;;3.80;99.90;;;;;;5054881;28;20272;-70
2021/12/14 03:45:53;;;;;;;0.30;0.30;;;3.80;99.90;;;;;;5053501;28;20210;-69
2021/12/14 03:48:25;;;;;;;0.30;0.30;;;3.80;99.90;;;;;;5054183;28;20184;-70
2021/12/14 03:50:52;;;;;;;0.30;0.30;;;3.90;99.90;;;;;;5054779;28;20160;-69
2021/12/14 03:53:19;;;;;;;0.40;0.40;;;3.90;99.90;;;;;;5054867;28;20168;-70
2021/12/14 03:55:48;;;;;;;0.30;0.30;;;3.80;99.90;;;;;;5054557;28;20613;-70
2021/12/14 03:58:18;;;;;;;0.30;0.30;;;3.60;99.90;;;;;;5054740;28;20179;-69
2021/12/14 04:00:51;;;;;;;0.40;0.40;;;3.60;99.90;;;;;;5054513;28;20184;-70
2021/12/14 04:03:19;;;;;;;0.30;0.30;;;3.60;99.90;;;;;;5054753;28;20184;-71
2021/12/14 04:05:46;;;;;;;0.30;0.30;;;3.70;99.90;;;;;;5054532;28;20200;-70
2021/12/14 04:08:13;;;;;;;0.30;0.30;;;3.80;99.90;;;;;;5054660;28;20169;-71
2021/12/14 04:10:42;;;;;;;0.30;0.30;;;3.80;99.90;;;;;;5054243;28;20218;-71
2021/12/14 04:13:08;;;;;;;0.30;0.30;;;3.90;99.90;;;;;;5054396;28;20172;-71
2021/12/14 04:15:34;;;;;;;0.30;0.30;;;3.90;99.90;;;;;;5054325;28;20193;-70
2021/12/14 04:18:00;;;;;;;0.30;0.30;;;3.80;99.90;;;;;;5054332;28;20183;-70
2021/12/14 04:20:33;;;;;;;0.30;0.30;;;3.70;99.90;;;;;;5054219;28;20183;-69
2021/12/14 04:23:01;;;;;;;0.30;0.30;;;3.60;99.90;;;;;;5054417;28;20191;-70
2021/12/14 04:25:30;;;;;;;0.40;0.40;;;3.60;99.90;;;;;;5054009;28;20206;-70
2021/12/14 04:27:59;;;;;;;0.30;0.30;;;3.40;99.90;;;;;;5054065;28;20175;-70
2021/12/14 04:30:27;;;;;;;0.30;0.30;;;3.40;99.90;;;;;;5053864;28;20172;-70
2021/12/14 04:32:56;;;;;;;0.30;0.30;;;3.40;99.90;;;;;;5054145;28;20171;-70
2021/12/14 04:35:22;;;;;;;0.40;0.40;;;3.40;99.90;;;;;;5053735;28;20201;-70
2021/12/14 04:37:50;;;;;;;0.30;0.30;;;3.50;99.90;;;;;;5053905;28;20186;-70
2021/12/14 04:51:50;;;;;;;0.30;0.30;;;3.50;99.90;;;;;;5053917;28;20184;-69
2021/12/14 04:54:08;;;;;;;0.30;0.30;;;3.80;99.90;;;;;;5053664;28;20561;-72
2021/12/14 04:56:41;;;;;;;0.30;0.30;;;3.80;99.90;;;;;;5051932;28;20420;-70
2021/12/14 04:59:09;;;;;;;0.30;0.30;;;3.80;99.90;;;;;;5052791;28;20234;-69
2021/12/14 05:01:38;;;;;;;0.30;0.30;;;3.90;99.90;;;;;;5053505;28;20230;-69
2021/12/14 05:04:11;;;;;;;0.30;0.30;;;3.90;99.90;;;;;;5053512;28;20540;-71
2021/12/14 05:06:49;;;;;;;0.30;0.30;;;3.90;99.90;;;;;;5053449;28;20568;-69
2021/12/14 05:33:23;;;;;;;0.30;0.30;;;3.90;99.90;;;;;;5013412;28;20216;-68
2021/12/14 05:35:51;;;;;;;0.30;0.30;;;3.90;99.90;;;;;;5013243;28;20188;-67
2021/12/14 05:38:24;;;;;;;0.35;0.35;;;3.80;99.90;;;;;;5013288;28;20181;-68
2021/12/14 05:43:24;;;;;;;0.30;0.30;;;4.00;99.90;;;;;;5013257;28;20567;-68
2021/12/14 05:45:54;;;;;;;0.30;0.30;;;3.90;99.90;;;;;;5013692;28;20809;-68
2021/12/14 05:48:24;;;;;;;0.40;0.40;;;3.90;99.90;;;;;;5013639;28;20185;-68
2021/12/14 05:50:53;;;;;;;0.30;0.30;;;4.10;99.90;;;;;;5014123;28;20173;-68
2021/12/14 05:53:40;;;;;;;0.30;0.30;;;4.10;99.90;;;;;;5013653;28;20201;-68
2021/12/14 05:56:11;;;;;;;0.40;0.40;;;4.10;99.90;;;;;;5013837;28;20168;-68
2021/12/14 05:58:38;;;;;;;0.30;0.30;;;4.10;99.90;;;;;;5013942;28;20173;-68
2021/12/14 06:01:13;;;;;;;0.40;0.40;;;4.00;99.90;;;;;;5014045;28;20641;-68
2021/12/14 06:03:45;;;;;;;0.40;0.40;;;4.10;99.90;;;;;;5013599;28;20204;-68
2021/12/14 06:06:18;;;;;;;0.40;0.40;;;4.10;99.90;;;;;;5013848;28;20217;-68
2021/12/14 06:08:45;;;;;;;0.35;0.35;;;4.10;99.90;;;;;;5013499;28;20170;-68
2021/12/14 06:11:25;;;;;;;0.40;0.40;;;4.10;99.90;;;;;;5014727;28;20206;-68
2021/12/14 06:13:52;;;;;;;0.38;0.38;;;4.20;99.90;;;;;;5016910;28;20183;-70
2021/12/14 06:16:27;;;;;;;0.30;0.30;;;4.20;99.90;;;;;;5017037;28;20179;-70
2021/12/14 06:18:53;;;;;;;0.30;0.30;;;4.30;99.90;;;;;;5016683;28;20173;-69
2021/12/14 06:21:32;;;;;;;0.32;0.32;;;4.40;99.90;;;;;;5017364;28;20210;-68
2021/12/14 06:24:06;;;;;;;0.30;0.30;;;4.40;99.90;;;;;;5016874;28;20191;-68
2021/12/14 06:26:39;;;;;;;0.30;0.30;;;4.40;99.90;;;;;;5016834;28;20258;-68
2021/12/14 06:29:07;;;;;;;0.30;0.30;;;4.50;99.90;;;;;;5016797;28;20183;-68
2021/12/14 06:31:33;;;;;;;0.30;0.30;;;4.40;99.90;;;;;;5016924;28;20182;-69
2021/12/14 06:34:39;;;;;;;0.30;0.30;;;4.50;99.90;;;;;;5016887;28;20187;-69
2021/12/14 06:37:28;;;;;;;0.30;0.30;;;4.50;99.90;;;;;;5011988;28;20260;-70
2021/12/14 06:40:47;;;;;;;0.30;0.30;;;4.50;99.90;;;;;;5016767;28;20617;-70
2021/12/14 06:43:17;;;;;;;0.30;0.30;;;4.50;99.90;;;;;;5007022;28;20206;-70
2021/12/14 06:45:45;;;;;;;0.38;0.38;;;4.50;99.90;;;;;;5016683;28;20554;-69
2021/12/14 06:48:22;;;;;;;0.30;0.30;;;4.30;99.90;;;;;;5015180;28;20182;-69
2021/12/14 06:51:03;;;;;;;0.40;0.40;;;4.30;99.90;;;;;;5016855;28;20178;-70
2021/12/14 06:53:28;;;;;;;0.30;0.30;;;4.30;99.90;;;;;;5016420;28;20198;-72
2021/12/14 06:55:58;;;;;;;0.30;0.30;;;4.30;99.90;;;;;;5016343;28;20179;-67
2021/12/14 06:58:27;;;;;;;0.30;0.30;;;4.30;99.90;;;;;;5016062;28;20171;-69
2021/12/14 07:01:09;;;;;;;0.30;0.30;;;4.30;99.90;;;;;;5016360;28;20175;-68
2021/12/14 07:03:59;;;;;;;0.30;0.30;;;4.40;99.90;;;;;;5015128;28;20274;-69
2021/12/14 07:06:33;;;;;;;0.30;0.30;;;4.60;99.90;;;;;;5016295;28;20289;-69
2021/12/14 07:09:08;;;;;;;0.30;0.30;;;4.70;99.90;;;;;;5015878;28;20172;-67
2021/12/14 07:11:36;;;;;;;0.38;0.38;;;4.80;99.90;;;;;;5016341;28;20522;-67
2021/12/14 07:14:14;;;;;;;0.40;0.40;;;5.00;99.90;;;;;;5016190;28;20188;-67
2021/12/14 07:16:46;;;;;;;0.40;0.40;;;5.10;99.90;;;;;;5015880;28;20189;-67
2021/12/14 07:19:11;;;;;;;0.30;0.30;;;5.20;99.90;;;;;;5015986;28;20170;-67
2021/12/14 07:21:46;;;;;;;0.30;0.30;;;5.30;99.90;;;;;;5016080;28;20176;-67
2021/12/14 07:24:21;;;;;;;0.40;0.40;;;5.30;99.90;;;;;;5015155;28;20191;-68
2021/12/14 07:27:07;;;;;;;0.30;0.30;;;5.40;99.90;;;;;;5016242;28;20233;-67
2021/12/14 07:29:33;;;;;;;0.40;0.40;;;5.40;99.90;;;;;;5015256;28;20587;-67
2021/12/14 07:31:58;;;;;;;0.40;0.40;;;5.40;99.90;;;;;;5015788;28;20180;-68
2021/12/14 07:34:24;;;;;;;0.40;0.40;;;5.40;99.90;;;;;;5015878;28;20187;-67
2021/12/14 07:36:50;;;;;;;0.30;0.30;;;5.50;99.90;;;;;;5015945;28;20187;-67
2021/12/14 07:39:20;;;;;;;0.40;0.40;;;5.50;99.90;;;;;;5015464;28;20163;-68
2021/12/14 07:41:54;;;;;;;0.35;0.35;;;5.60;99.90;;;;;;5015482;28;20182;-67
2021/12/14 07:44:24;;;;;;;0.35;0.35;;;5.60;99.90;;;;;;5015801;28;20187;-67
2021/12/14 07:46:57;;;;;;;0.35;0.35;;;5.60;99.90;;;;;;5015298;28;20211;-68
2021/12/14 07:49:34;;;;;;;0.35;0.35;;;5.50;99.90;;;;;;5014173;28;20164;-68
2021/12/14 07:52:11;;;;;;;0.30;0.30;;;5.50;99.90;;;;;;5014917;28;20175;-68
2021/12/14 07:54:52;;;;;;;0.40;0.40;;;5.50;99.90;;;;;;5014987;28;20183;-68
2021/12/14 07:57:35;;;;;;;0.30;0.30;;;5.50;99.90;;;;;;5015166;28;20284;-68
2021/12/14 08:00:15;;;;;;;0.30;0.30;;;5.60;99.90;;;;;;5014907;28;20179;-67
2021/12/14 08:02:50;;;;;;;0.40;0.40;;;5.70;99.90;;;;;;5015022;28;20182;-68
2021/12/14 08:05:23;;;;;;;0.38;0.38;;;5.90;99.90;;;;;;5014663;28;20229;-68
2021/12/14 08:07:58;;;;;;;0.30;0.30;;;5.90;99.90;;;;;;5015070;28;20171;-68
2021/12/14 08:10:28;;;;;;;0.30;0.30;;;5.90;99.90;;;;;;5014863;28;20198;-68
2021/12/14 08:13:09;;;;;;;0.30;0.30;;;5.90;99.90;;;;;;5014880;28;20172;-68
2021/12/14 08:15:39;;;;;;;0.38;0.38;;;6.00;99.90;;;;;;5014717;28;20531;-68
2021/12/14 08:18:17;;;;;;;0.40;0.40;;;6.10;99.90;;;;;;5014560;28;20180;-68
2021/12/14 08:20:48;;;;;;;0.40;0.40;;;6.20;99.90;;;;;;5014804;28;20667;-68
2021/12/14 08:23:27;;;;;;;0.38;0.38;;;6.40;99.90;;;;;;5015135;28;20526;-68
2021/12/14 08:26:15;;;;;;;0.30;0.30;;;6.60;99.90;;;;;;5014495;28;20257;-68
2021/12/14 08:28:49;;;;;;;0.40;0.40;;;6.60;99.90;;;;;;5014434;28;20175;-68
2021/12/14 08:31:15;;;;;;;0.40;0.40;;;6.70;99.90;;;;;;5014594;28;20171;-68
2021/12/14 08:33:41;;;;;;;0.35;0.35;;;6.70;99.90;;;;;;5014167;28;20282;-68
2021/12/14 08:36:11;;;;;;;0.40;0.40;;;6.80;99.90;;;;;;5014366;28;20277;-68
2021/12/14 08:38:37;;;;;;;0.30;0.30;;;6.90;99.90;;;;;;5014129;28;20185;-68
2021/12/14 08:41:21;;;;;;;0.40;0.40;;;6.90;99.90;;;;;;5014383;28;20604;-68
2021/12/14 08:43:50;;;;;;;0.30;0.30;;;7.00;99.90;;;;;;5013057;28;21005;-68
2021/12/14 08:46:30;;;;;;;0.30;0.30;;;7.00;99.90;;;;;;5014060;28;20211;-68
2021/12/14 08:49:02;;;;;;;0.30;0.30;;;7.10;99.90;;;;;;5014093;28;20168;-68
2021/12/14 08:51:40;;;;;;;0.40;0.40;;;7.10;99.90;;;;;;5014323;28;20171;-68
2021/12/14 08:54:11;;;;;;;0.30;0.30;;;7.20;99.90;;;;;;5014155;28;20184;-68
2021/12/14 08:56:49;;;;;;;0.30;0.30;;;7.20;99.90;;;;;;5014296;28;20537;-68
2021/12/14 08:59:15;;;;;;;0.30;0.30;;;7.20;99.90;;;;;;5014123;28;20172;-68
2021/12/14 09:01:43;;;;;;;0.30;0.30;;;7.30;99.90;;;;;;5014048;28;20203;-68
2021/12/14 09:04:16;;;;;;;0.30;0.30;;;7.40;99.90;;;;;;5013928;28;20369;-68
2021/12/14 09:06:45;;;;;;;0.30;0.30;;;7.50;99.90;;;;;;5013720;28;20275;-68
2021/12/14 09:09:14;;;;;;;0.40;0.40;;;7.70;99.90;;;;;;5013847;28;20166;-68
2021/12/14 09:11:43;;;;;;;0.40;0.40;;;7.80;99.90;;;;;;5014083;28;20505;-68
2021/12/14 09:14:13;;;;;;;0.30;0.30;;;8.00;99.90;;;;;;5013837;28;20678;-68
2021/12/14 09:16:42;;;;;;;0.40;0.40;;;8.10;99.90;;;;;;5013782;28;20628;-68
2021/12/14 09:19:13;;;;;;;0.30;0.30;;;8.20;99.90;;;;;;5013524;28;20655;-68
2021/12/14 09:21:44;;;;;;;0.30;0.30;;;8.40;99.90;;;;;;5013959;28;20189;-68
2021/12/14 09:24:14;;;;;;;0.30;0.30;;;8.70;99.90;;;;;;5013780;28;20187;-68
2021/12/14 09:26:45;;;;;;;0.30;0.30;;;8.90;99.90;;;;;;5013747;28;20198;-68
2021/12/14 09:29:14;;;;;;;0.30;0.30;;;9.20;99.90;;;;;;5012244;28;20173;-68
2021/12/14 09:31:42;;;;;;;0.30;0.30;;;9.50;99.90;;;;;;5013775;28;20167;-68
2021/12/14 09:34:11;;;;;;;0.30;0.30;;;9.90;99.90;;;;;;5013557;28;20242;-68
2021/12/14 09:36:40;;;;;;;0.30;0.30;;;10.80;99.90;;;;;;5013497;28;20237;-68
2021/12/14 09:39:11;;;;;;;0.30;0.30;;;11.40;99.90;;;;;;5012128;28;20651;-68
2021/12/14 09:41:39;;;;;;;0.30;0.30;;;11.70;98.70;;;;;;5013765;28;20167;-68
2021/12/14 09:44:09;;;;;;;0.30;0.30;;;11.90;97.10;;;;;;5013639;28;20218;-68
2021/12/14 09:46:36;;;;;;;0.30;0.30;;;12.30;96.30;;;;;;5015507;28;20203;-68
2021/12/14 09:49:06;;;;;;;0.30;0.30;;;12.90;98.70;;;;;;5017205;28;20180;-68
2021/12/14 09:51:48;;;;;;;0.30;0.30;;;13.10;96.20;;;;;;5017635;28;20164;-68
2021/12/14 09:54:18;;;;;;;0.30;0.30;;;13.20;94.10;;;;;;5017345;28;20257;-68
2021/12/14 09:56:53;;;;;;;0.30;0.30;;;13.00;92.50;;;;;;5017273;28;20506;-68
2021/12/14 09:59:19;;;;;;;0.30;0.30;;;12.70;91.00;;;;;;5017343;28;20186;-68
2021/12/14 10:01:53;;;;;;;0.30;0.30;;;12.40;91.00;;;;;;5017366;28;20171;-68
2021/12/14 10:04:27;;;;;;;0.40;0.40;;;12.10;91.60;;;;;;5017161;28;20426;-68
2021/12/14 10:06:54;;;;;;;0.30;0.30;;;11.50;93.00;;;;;;5017111;28;20190;-68
2021/12/14 10:09:27;;;;;;;0.30;0.30;;;11.20;93.70;;;;;;5016855;28;20176;-68
2021/12/14 10:12:15;;;;;;;0.30;0.30;;;11.10;93.20;;;;;;5017432;28;20540;-68
2021/12/14 10:14:42;;;;;;;0.40;0.40;;;10.90;94.00;;;;;;5017019;28;20195;-68
2021/12/14 10:17:12;;;;;;;0.30;0.30;;;10.70;93.50;;;;;;5017057;28;20571;-68
2021/12/14 10:19:39;;;;;;;0.30;0.30;;;10.70;94.00;;;;;;5016730;28;20175;-68
2021/12/14 10:22:10;;;;;;;0.30;0.30;;;10.90;93.80;;;;;;5017037;28;20184;-68
2021/12/14 10:24:36;;;;;;;0.30;0.30;;;11.50;93.90;;;;;;5016735;28;20218;-68
2021/12/14 10:27:08;;;;;;;0.30;0.30;;;12.70;91.30;;;;;;5016849;28;20619;-68
2021/12/14 10:29:34;;;;;;;0.30;0.30;;;13.80;90.10;;;;;;5016576;28;20174;-68
2021/12/14 10:32:04;;;;;;;0.30;0.30;;;14.50;87.30;;;;;;5016760;28;20951;-68
2021/12/14 10:34:38;;;;;;;0.30;0.30;;;14.40;82.90;;;;;;5016641;28;20196;-68
2021/12/14 10:37:15;;;;;;;0.30;0.30;;;14.60;83.20;;;;;;5016565;28;20194;-68
2021/12/14 10:45:12;;;;;;;0.40;0.40;;;13.80;83.40;;;;;;5016473;28;20480;-68
2021/12/14 10:47:39;;;;;;;0.30;0.30;;;13.10;87.40;;;;;;5016452;28;20628;-68
2021/12/14 10:50:12;;;;;;;0.30;0.30;;;12.60;87.40;;;;;;5016247;28;20167;-68
2021/12/14 10:52:42;;;;;;;0.30;0.30;;;12.20;87.90;;;;;;5015833;28;20184;-68
2021/12/14 10:55:11;;;;;;;0.30;0.30;;;12.10;90.30;;;;;;5016116;28;20183;-68
2021/12/14 10:57:37;;;;;;;0.30;0.30;;;12.10;91.10;;;;;;5014781;28;20167;-68
2021/12/14 11:00:10;;;;;;;0.40;0.40;;;12.40;90.70;;;;;;5015458;28;20715;-67
2021/12/14 11:02:41;;;;;;;0.30;0.30;;;12.70;90.10;;;;;;5016473;28;20168;-66
2021/12/14 11:05:16;;;;;;;0.30;0.30;;;12.80;89.90;;;;;;5015592;28;20433;-68
2021/12/14 11:07:45;;;;;;;0.30;0.30;;;12.80;90.40;;;;;;5016402;28;20198;-68
2021/12/14 11:10:19;;;;;;;0.30;0.30;;;12.80;89.10;;;;;;5015931;28;20171;-68
2021/12/14 11:12:49;;;;;;;0.30;0.30;;;12.80;89.00;;;;;;5015714;28;20168;-68
2021/12/14 11:15:37;;;;;;;0.30;0.30;;;12.80;89.20;;;;;;5015183;28;20274;-68
2021/12/14 11:18:10;;;;;;;0.30;0.30;;;12.70;90.00;;;;;;5015835;28;20531;-68
2021/12/14 11:20:50;;;;;;;0.30;0.30;;;12.60;90.20;;;;;;5015914;28;20168;-68
2021/12/14 11:23:21;;;;;;;0.30;0.30;;;12.70;90.80;;;;;;5014706;28;20263;-67
2021/12/14 11:25:53;;;;;;;0.30;0.30;;;13.00;88.20;;;;;;5016124;28;20529;-68
2021/12/14 11:28:32;;;;;;;0.30;0.30;;;13.10;88.20;;;;;;5015469;28;20981;-68
2021/12/14 11:31:41;;;;;;;0.30;0.30;;;13.40;87.90;;;;;;5015859;28;20402;-68
2021/12/14 11:34:14;;;;;;;0.40;0.40;;;13.60;88.50;;;;;;5015384;28;20492;-68
2021/12/14 11:36:45;;;;;;;0.30;0.30;;;13.60;87.40;;;;;;5015270;28;20911;-68
2021/12/14 11:39:18;;;;;;;0.30;0.30;;;13.60;87.40;;;;;;5015085;28;20453;-68
2021/12/14 11:41:49;;;;;;;0.32;0.32;;;13.40;86.10;;;;;;5015810;28;20410;-68
2021/12/14 11:44:20;;;;;;;0.30;0.30;;;13.20;90.30;;;;;;5015617;28;20294;-68
2021/12/14 11:47:00;;;;;;;0.30;0.30;;;12.80;90.30;;;;;;5015907;28;20194;-68
2021/12/14 11:49:47;;;;;;;0.30;0.30;;;12.50;90.40;;;;;;5013831;28;20175;-68
2021/12/14 11:52:30;;;;;;;0.30;0.30;;;12.30;90.80;;;;;;5014754;28;20180;-69
2021/12/14 11:54:56;;;;;;;0.30;0.30;;;12.10;90.90;;;;;;5015607;28;20196;-67
2021/12/14 11:57:31;;;;;;;0.30;0.30;;;12.00;91.10;;;;;;5015686;28;20203;-67
2021/12/14 12:00:07;;;;;;;0.30;0.30;;;11.80;91.50;;;;;;5014896;28;20258;-66
2021/12/14 12:02:32;;;;;;;0.40;0.40;;;11.70;92.60;;;;;;5015572;28;20179;-67
2021/12/14 12:04:58;;;;;;;0.30;0.30;;;11.60;92.10;;;;;;5015191;28;20610;-68
2021/12/14 12:10:09;;;;;;;0.30;0.30;;;11.40;91.80;;;;;;5014416;28;20185;-66
2021/12/14 12:12:40;;;;;;;0.30;0.30;;;11.30;92.70;;;;;;5014914;28;20167;-66
2021/12/14 12:15:19;;;;;;;0.30;0.30;;;11.20;92.40;;;;;;5013702;28;20441;-66
2021/12/14 12:17:52;;;;;;;0.30;0.30;;;11.20;93.10;;;;;;5015238;28;20652;-67
2021/12/14 12:20:43;;;;;;;0.30;0.30;;;11.20;94.40;;;;;;5015337;28;20168;-67
2021/12/14 12:23:11;;;;;;;0.30;0.30;;;11.20;94.00;;;;;;5014903;28;20174;-66
2021/12/14 12:25:44;;;;;;;0.32;0.32;;;11.20;93.90;;;;;;5014851;28;20226;-67
2021/12/14 12:28:17;;;;;;;0.30;0.30;;;11.40;93.50;;;;;;5014739;28;20168;-66
2021/12/14 12:30:49;;;;;;;0.30;0.30;;;11.40;93.00;;;;;;5014751;28;20176;-67
2021/12/14 12:33:50;;;;;;;0.30;0.30;;;11.40;92.40;;;;;;5014431;28;20621;-66
2021/12/14 12:36:23;;;;;;;0.70;0.70;;;11.20;92.60;;;;;;5010077;28;20225;-67
2021/12/14 12:39:15;;;;;;;0.30;0.30;;;11.00;93.30;;;;;;5014489;28;20183;-66
2021/12/14 12:41:47;;;;;;;0.30;0.30;;;10.90;94.00;;;;;;5014383;28;20656;-66
2021/12/14 12:44:24;;;;;;;0.30;0.30;;;10.80;94.70;;;;;;5013723;28;20775;-66
2021/12/14 12:47:07;;;;;;;0.30;0.30;;;10.90;94.50;;;;;;5014588;28;20548;-66
2021/12/14 12:49:45;;;;;;;0.40;0.40;;;10.90;94.40;;;;;;5014207;28;20203;-66
2021/12/14 12:52:19;;;;;;;0.30;0.30;;;11.00;94.00;;;;;;5013074;28;20171;-66
2021/12/14 12:55:11;;;;;;;0.30;0.30;;;11.10;93.10;;;;;;5014251;28;20199;-66
2021/12/14 12:58:11;;;;;;;0.30;0.30;;;11.20;93.40;;;;;;5013847;28;20266;-66
2021/12/14 13:00:43;;;;;;;0.30;0.30;;;11.20;94.00;;;;;;5014316;28;20210;-66
2021/12/14 13:03:18;;;;;;;0.30;0.30;;;11.20;93.60;;;;;;5014164;28;20175;-66
2021/12/14 13:05:46;;;;;;;0.30;0.30;;;11.10;94.00;;;;;;5014454;28;20277;-66
2021/12/14 13:08:20;;;;;;;0.30;0.30;;;11.20;94.20;;;;;;5014140;28;20167;-66
2021/12/14 13:11:09;;;;;;;0.30;0.30;;;11.20;94.10;;;;;;5012684;28;20516;-66
2021/12/14 13:13:42;;;;;;;0.30;0.30;;;11.30;93.60;;;;;;5011835;28;20210;-66
2021/12/14 13:16:33;;;;;;;0.30;0.30;;;11.30;93.80;;;;;;5012413;28;20176;-66
2021/12/14 13:19:02;;;;;;;0.30;0.30;;;11.30;93.60;;;;;;5013403;28;20633;-66
2021/12/14 13:21:59;;;;;;;0.30;0.30;;;11.20;92.90;;;;;;5011945;28;20179;-66
2021/12/14 13:24:31;;;;;;;0.30;0.30;;;10.90;93.80;;;;;;5014230;28;20183;-66
2021/12/14 13:27:00;;;;;;;0.30;0.30;;;10.90;94.20;;;;;;5014323;28;20289;-67
2021/12/14 13:29:33;;;;;;;0.30;0.30;;;10.80;93.20;;;;;;5013709;28;20164;-67
2021/12/14 13:32:09;;;;;;;0.30;0.30;;;10.80;93.70;;;;;;5013856;28;20179;-67
2021/12/14 13:34:46;;;;;;;0.40;0.40;;;10.70;93.90;;;;;;5014120;28;20191;-68
2021/12/14 13:37:15;;;;;;;0.30;0.30;;;10.70;94.20;;;;;;5014094;28;20624;-67
2021/12/14 13:39:41;;;;;;;0.30;0.30;;;10.60;94.20;;;;;;5013432;28;20176;-67
2021/12/14 13:42:07;;;;;;;0.30;0.30;;;10.60;94.10;;;;;;5013537;28;20174;-68
2021/12/14 13:44:39;;;;;;;0.30;0.30;;;10.40;94.70;;;;;;5013619;28;20198;-67
2021/12/14 13:47:08;;;;;;;0.30;0.30;;;10.30;94.80;;;;;;5013972;28;20282;-67
2021/12/14 13:49:36;;;;;;;0.30;0.30;;;10.30;95.80;;;;;;5013498;28;20181;-67
2021/12/14 13:52:05;;;;;;;0.30;0.30;;;10.20;94.70;;;;;;5013596;28;20650;-67
2021/12/14 13:55:05;;;;;;;0.30;0.30;;;10.20;95.40;;;;;;5013468;28;20206;-67
2021/12/14 13:57:31;;;;;;;0.30;0.30;;;10.20;94.40;;;;;;5013859;28;20625;-67
2021/12/14 13:59:57;;;;;;;0.30;0.30;;;10.10;93.60;;;;;;5013603;28;20183;-67
2021/12/14 14:02:23;;;;;;;0.37;0.37;;;9.90;94.70;;;;;;5014012;28;20406;-67
2021/12/14 14:04:48;;;;;;;0.30;0.30;;;9.80;95.40;;;;;;5013973;28;20581;-67
2021/12/14 14:07:14;;;;;;;0.30;0.30;;;9.70;95.90;;;;;;5013728;28;20567;-67
2021/12/14 14:09:41;;;;;;;0.30;0.30;;;9.70;96.20;;;;;;5013459;28;20523;-67